Time,TemperatureF,DewpointF,PressureIn,WindDirection,WindDirectionDegrees,WindSpeedMPH,WindSpeedGustMPH,Humidity,HourlyPrecipIn,Conditions,Clouds,dailyrainin,SoftwareType,DateUTC
2013-06-01 00:01:00,72.5,60.9,30.00,SE,125,0.0,0.0,67,0.00,,---,0.00,VWS V14.01,2013-06-01 04:01:00,
2013-06-01 00:02:00,72.5,60.9,30.00,SE,125,0.0,0.0,67,0.00,,---,0.00,VWS V14.01,2013-06-01 04:02:00,
2013-06-01 00:04:00,72.5,60.9,30.00,SE,125,0.0,0.0,67,0.00,,---,0.00,VWS V14.01,2013-06-01 04:04:00,
2013-06-01 00:06:00,72.5,60.9,30.00,SE,125,0.0,0.0,67,0.00,,---,0.00,VWS V14.01,2013-06-01 04:06:00,
2013-06-01 00:07:00,72.5,60.9,30.00,SE,125,0.0,0.0,67,0.00,,---,0.00,VWS V14.01,2013-06-01 04:07:00,
2013-06-01 00:12:00,72.7,60.7,30.00,SE,125,0.0,0.0,66,0.00,,---,0.00,VWS V14.01,2013-06-01 04:12:00,
2013-06-01 00:17:00,72.7,60.7,30.00,SE,125,0.0,0.0,66,0.00,,---,0.00,VWS V14.01,2013-06-01 04:17:00,
2013-06-01 00:22:00,72.7,60.7,30.00,SE,125,0.0,0.0,66,0.00,,---,0.00,VWS V14.01,2013-06-01 04:22:00,
2013-06-01 00:27:00,72.8,60.4,30.00,SE,125,0.0,0.0,65,0.00,,---,0.00,VWS V14.01,2013-06-01 04:27:00,
2013-06-01 00:32:00,72.8,60.4,30.00,SE,125,0.0,0.0,65,0.00,,---,0.00,VWS V14.01,2013-06-01 04:32:00,
2013-06-01 00:37:00,72.8,60.4,30.00,SE,125,0.0,0.0,65,0.00,,---,0.00,VWS V14.01,2013-06-01 04:37:00,
2013-06-01 00:42:00,72.8,60.4,30.00,SE,125,0.0,0.0,65,0.00,,---,0.00,VWS V14.01,2013-06-01 04:42:00,
2013-06-01 00:48:00,72.8,61.2,30.00,SE,125,0.0,0.0,67,0.00,,---,0.00,VWS V14.01,2013-06-01 04:48:00,
2013-06-01 00:53:00,72.7,60.3,29.99,SE,125,0.0,0.0,65,0.00,,---,0.00,VWS V14.01,2013-06-01 04:53:00,
2013-06-01 00:58:00,72.5,60.1,29.99,SE,125,0.0,0.0,65,0.00,,---,0.00,VWS V14.01,2013-06-01 04:58:00,
2013-06-01 01:04:00,72.3,59.9,29.99,SE,125,0.0,0.0,65,0.00,,---,0.00,VWS V14.01,2013-06-01 05:04:00,
2013-06-01 01:10:00,72.3,59.9,29.99,SE,125,0.0,0.0,65,0.00,,---,0.00,VWS V14.01,2013-06-01 05:10:00,
2013-06-01 01:15:00,72.5,61.3,29.99,SE,125,0.0,0.0,68,0.00,,---,0.00,VWS V14.01,2013-06-01 05:15:00,
2013-06-01 01:20:00,72.3,61.6,29.99,SE,125,0.0,0.0,69,0.00,,---,0.00,VWS V14.01,2013-06-01 05:20:00,
2013-06-01 01:25:00,71.6,60.9,29.99,SE,125,0.0,0.0,69,0.00,,---,0.00,VWS V14.01,2013-06-01 05:25:00,
2013-06-01 01:31:00,71.3,60.6,29.99,SE,125,0.0,0.0,69,0.00,,---,0.00,VWS V14.01,2013-06-01 05:31:00,
2013-06-01 01:36:00,71.1,60.8,29.99,SE,125,0.0,0.0,70,0.00,,---,0.00,VWS V14.01,2013-06-01 05:36:00,
2013-06-01 01:41:00,70.9,61.0,29.99,SE,125,0.0,0.0,71,0.00,,---,0.00,VWS V14.01,2013-06-01 05:41:00,
2013-06-01 01:46:00,70.6,61.5,29.99,SE,125,0.0,0.0,73,0.00,,---,0.00,VWS V14.01,2013-06-01 05:46:00,
2013-06-01 01:52:00,70.3,61.6,29.98,SE,125,0.0,0.0,74,0.00,,---,0.00,VWS V14.01,2013-06-01 05:52:00,
2013-06-01 01:57:00,69.9,61.2,29.98,SE,125,0.0,0.0,74,0.00,,---,0.00,VWS V14.01,2013-06-01 05:57:00,
2013-06-01 02:02:00,69.8,60.8,29.98,SE,125,0.0,0.0,73,0.00,,---,0.00,VWS V14.01,2013-06-01 06:02:00,
2013-06-01 02:07:00,69.8,60.8,29.98,SE,125,0.0,0.0,73,0.00,,---,0.00,VWS V14.01,2013-06-01 06:07:00,
2013-06-01 02:12:00,69.9,60.9,29.98,SE,125,0.0,0.0,73,0.00,,---,0.00,VWS V14.01,2013-06-01 06:12:00,
2013-06-01 02:18:00,70.1,60.7,29.98,SE,125,0.0,0.0,72,0.00,,---,0.00,VWS V14.01,2013-06-01 06:18:00,
2013-06-01 02:23:00,70.1,61.0,29.98,SE,125,0.0,0.0,73,0.00,,---,0.00,VWS V14.01,2013-06-01 06:23:00,
2013-06-01 02:28:00,70.3,61.2,29.98,SE,125,0.0,0.0,73,0.00,,---,0.00,VWS V14.01,2013-06-01 06:28:00,
2013-06-01 02:34:00,70.3,61.6,29.98,SE,125,0.0,0.0,74,0.00,,---,0.00,VWS V14.01,2013-06-01 06:34:00,
2013-06-01 02:39:00,70.1,61.4,29.98,SE,125,0.0,0.0,74,0.00,,---,0.00,VWS V14.01,2013-06-01 06:39:00,
2013-06-01 02:44:00,69.6,61.0,29.98,SE,125,0.0,0.0,74,0.00,,---,0.00,VWS V14.01,2013-06-01 06:44:00,
2013-06-01 02:49:00,69.1,60.8,29.98,SE,125,0.0,0.0,75,0.00,,---,0.00,VWS V14.01,2013-06-01 06:49:00,
2013-06-01 02:54:00,68.6,61.1,29.98,SE,125,0.0,0.0,77,0.00,,---,0.00,VWS V14.01,2013-06-01 06:54:00,
2013-06-01 02:59:00,67.9,60.8,29.98,SE,125,0.0,0.0,78,0.00,,---,0.00,VWS V14.01,2013-06-01 06:59:00,
2013-06-01 03:05:00,67.3,60.6,29.98,SE,125,0.0,0.0,79,0.00,,---,0.00,VWS V14.01,2013-06-01 07:05:00,
2013-06-01 03:10:00,67.1,60.7,29.97,SE,125,0.0,0.0,80,0.00,,---,0.00,VWS V14.01,2013-06-01 07:10:00,
2013-06-01 03:15:00,66.6,60.6,29.97,SE,125,0.0,0.0,81,0.00,,---,0.00,VWS V14.01,2013-06-01 07:15:00,
2013-06-01 03:20:00,66.4,60.4,29.97,SE,125,0.0,0.0,81,0.00,,---,0.00,VWS V14.01,2013-06-01 07:20:00,
2013-06-01 03:26:00,66.1,60.5,29.97,SE,125,0.0,0.0,82,0.00,,---,0.00,VWS V14.01,2013-06-01 07:26:00,
2013-06-01 03:31:00,66.0,60.7,29.98,SE,125,0.0,0.0,83,0.00,,---,0.00,VWS V14.01,2013-06-01 07:31:00,
2013-06-01 03:36:00,65.8,60.5,29.98,SE,125,0.0,0.0,83,0.00,,---,0.00,VWS V14.01,2013-06-01 07:36:00,
2013-06-01 03:42:00,65.3,60.0,29.98,SE,125,0.0,0.0,83,0.00,,---,0.00,VWS V14.01,2013-06-01 07:42:00,
2013-06-01 03:47:00,65.2,59.9,29.98,SE,125,0.0,0.0,83,0.00,,---,0.00,VWS V14.01,2013-06-01 07:47:00,
2013-06-01 03:52:00,64.8,59.9,29.98,SE,125,0.0,0.0,84,0.00,,---,0.00,VWS V14.01,2013-06-01 07:52:00,
2013-06-01 03:57:00,64.5,59.6,29.98,SE,125,0.0,0.0,84,0.00,,---,0.00,VWS V14.01,2013-06-01 07:57:00,
2013-06-01 04:02:00,64.3,59.7,29.98,SE,125,0.0,0.0,85,0.00,,---,0.00,VWS V14.01,2013-06-01 08:02:00,
2013-06-01 04:08:00,64.0,59.4,29.98,SE,125,0.0,0.0,85,0.00,,---,0.00,VWS V14.01,2013-06-01 08:08:00,
2013-06-01 04:14:00,63.9,59.6,29.98,SE,125,0.0,0.0,86,0.00,,---,0.00,VWS V14.01,2013-06-01 08:14:00,
2013-06-01 04:19:00,64.0,60.1,29.98,SE,125,0.0,0.0,87,0.00,,---,0.00,VWS V14.01,2013-06-01 08:19:00,
2013-06-01 04:24:00,64.0,60.4,29.98,SE,125,0.0,0.0,88,0.00,,---,0.00,VWS V14.01,2013-06-01 08:24:00,
2013-06-01 04:29:00,64.3,60.7,29.98,SE,125,0.0,0.0,88,0.00,,---,0.00,VWS V14.01,2013-06-01 08:29:00,
2013-06-01 04:34:00,64.5,61.2,29.98,SE,125,0.0,0.0,89,0.00,,---,0.00,VWS V14.01,2013-06-01 08:34:00,
2013-06-01 04:40:00,64.8,61.5,29.98,SE,125,0.0,0.0,89,0.00,,---,0.00,VWS V14.01,2013-06-01 08:40:00,
2013-06-01 04:45:00,65.2,61.6,29.98,SE,125,0.0,0.0,88,0.00,,---,0.00,VWS V14.01,2013-06-01 08:45:00,
2013-06-01 04:51:00,65.5,61.9,29.98,SE,125,0.0,0.0,88,0.00,,---,0.00,VWS V14.01,2013-06-01 08:51:00,
2013-06-01 04:57:00,65.6,61.6,29.98,SE,125,0.0,0.0,87,0.00,,---,0.00,VWS V14.01,2013-06-01 08:57:00,
2013-06-01 05:02:00,65.6,61.6,29.98,SE,125,0.0,0.0,87,0.00,,---,0.00,VWS V14.01,2013-06-01 09:02:00,
2013-06-01 05:08:00,65.8,61.5,29.98,SE,125,0.0,0.0,86,0.00,,---,0.00,VWS V14.01,2013-06-01 09:08:00,
2013-06-01 05:13:00,66.0,61.7,29.98,SE,125,0.0,0.0,86,0.00,,---,0.00,VWS V14.01,2013-06-01 09:13:00,
2013-06-01 05:18:00,66.3,62.0,29.98,SE,125,0.0,0.0,86,0.00,,---,0.00,VWS V14.01,2013-06-01 09:18:00,
2013-06-01 05:24:00,66.4,62.1,29.98,SE,125,0.0,0.0,86,0.00,,---,0.00,VWS V14.01,2013-06-01 09:24:00,
2013-06-01 05:29:00,66.6,62.0,29.99,SE,125,0.0,0.0,85,0.00,,---,0.00,VWS V14.01,2013-06-01 09:29:00,
2013-06-01 05:35:00,66.6,62.0,29.99,SE,125,0.0,0.0,85,0.00,,---,0.00,VWS V14.01,2013-06-01 09:35:00,
2013-06-01 05:40:00,66.8,62.5,29.99,SE,125,0.0,0.0,86,0.00,,---,0.00,VWS V14.01,2013-06-01 09:40:00,
2013-06-01 05:45:00,66.8,61.8,29.99,SE,125,0.0,0.0,84,0.00,,---,0.00,VWS V14.01,2013-06-01 09:45:00,
2013-06-01 05:50:00,66.4,61.1,29.98,SE,125,0.0,0.0,83,0.00,,---,0.00,VWS V14.01,2013-06-01 09:50:00,
2013-06-01 05:55:00,66.4,61.8,29.98,SE,125,0.0,0.0,85,0.00,,---,0.00,VWS V14.01,2013-06-01 09:55:00,
2013-06-01 06:00:00,66.8,62.5,29.98,SE,125,0.0,0.0,86,0.00,,---,0.00,VWS V14.01,2013-06-01 10:00:00,
2013-06-01 06:05:00,66.9,62.6,29.98,SE,125,0.0,0.0,86,0.00,,---,0.00,VWS V14.01,2013-06-01 10:05:00,
2013-06-01 06:10:00,67.1,62.8,29.98,SE,125,0.0,0.0,86,0.00,,---,0.00,VWS V14.01,2013-06-01 10:10:00,
2013-06-01 06:15:00,67.3,63.0,29.98,SE,125,0.0,0.0,86,0.00,,---,0.00,VWS V14.01,2013-06-01 10:15:00,
2013-06-01 06:21:00,67.4,62.7,29.98,SE,125,0.0,0.0,85,0.00,,---,0.00,VWS V14.01,2013-06-01 10:21:00,
2013-06-01 06:27:00,67.1,62.1,29.98,SE,125,0.0,0.0,84,0.00,,---,0.00,VWS V14.01,2013-06-01 10:27:00,
2013-06-01 06:32:00,67.1,62.5,29.98,SE,125,0.0,0.0,85,0.00,,---,0.00,VWS V14.01,2013-06-01 10:32:00,
2013-06-01 06:37:00,67.1,62.8,29.99,SE,125,0.0,0.0,86,0.00,,---,0.00,VWS V14.01,2013-06-01 10:37:00,
2013-06-01 06:42:00,67.3,63.0,29.98,SE,125,0.0,0.0,86,0.00,,---,0.00,VWS V14.01,2013-06-01 10:42:00,
2013-06-01 06:47:00,67.4,63.4,29.99,SE,125,0.0,0.0,87,0.00,,---,0.00,VWS V14.01,2013-06-01 10:47:00,
2013-06-01 06:52:00,67.8,63.8,29.99,SE,125,0.0,0.0,87,0.00,,---,0.00,VWS V14.01,2013-06-01 10:52:00,
2013-06-01 06:57:00,67.9,63.9,29.99,SE,125,0.0,0.0,87,0.00,,---,0.00,VWS V14.01,2013-06-01 10:57:00,
2013-06-01 07:03:00,68.3,64.0,29.99,SE,125,0.0,0.0,86,0.00,,---,0.00,VWS V14.01,2013-06-01 11:03:00,
2013-06-01 07:08:00,68.4,64.1,29.99,SE,125,0.0,0.0,86,0.00,,---,0.00,VWS V14.01,2013-06-01 11:08:00,
2013-06-01 07:13:00,68.8,64.4,29.99,SE,125,0.0,0.0,86,0.00,,---,0.00,VWS V14.01,2013-06-01 11:13:00,
2013-06-01 07:18:00,68.9,64.6,29.99,SE,125,0.0,0.0,86,0.00,,---,0.00,VWS V14.01,2013-06-01 11:18:00,
2013-06-01 07:24:00,69.3,64.6,29.99,SE,125,0.0,0.0,85,0.00,,---,0.00,VWS V14.01,2013-06-01 11:24:00,
2013-06-01 07:29:00,69.6,64.9,29.99,SE,125,0.0,0.0,85,0.00,,---,0.00,VWS V14.01,2013-06-01 11:29:00,
2013-06-01 07:34:00,69.8,65.1,29.99,SE,125,0.0,0.0,85,0.00,,---,0.00,VWS V14.01,2013-06-01 11:34:00,
2013-06-01 07:39:00,70.1,65.1,29.99,SE,125,0.0,0.0,84,0.00,,---,0.00,VWS V14.01,2013-06-01 11:39:00,
2013-06-01 07:44:00,70.4,65.3,29.99,SE,125,0.0,0.0,84,0.00,,---,0.00,VWS V14.01,2013-06-01 11:44:00,
2013-06-01 07:49:00,70.8,65.7,29.99,SE,125,0.0,0.0,84,0.00,,---,0.00,VWS V14.01,2013-06-01 11:49:00,
2013-06-01 07:54:00,71.1,65.7,29.98,SE,125,0.0,0.0,83,0.00,,---,0.00,VWS V14.01,2013-06-01 11:54:00,
2013-06-01 07:59:00,71.5,66.1,29.98,SE,125,0.0,0.0,83,0.00,,---,0.00,VWS V14.01,2013-06-01 11:59:00,
2013-06-01 08:05:00,71.8,66.0,29.98,SE,125,0.0,0.0,82,0.00,,---,0.00,VWS V14.01,2013-06-01 12:05:00,
2013-06-01 08:10:00,72.1,66.3,29.99,SE,125,0.0,0.0,82,0.00,,---,0.00,VWS V14.01,2013-06-01 12:10:00,
2013-06-01 08:15:00,72.5,66.3,29.98,SE,125,0.0,0.0,81,0.00,,---,0.00,VWS V14.01,2013-06-01 12:15:00,
2013-06-01 08:20:00,72.8,66.6,29.98,SE,125,0.0,0.0,81,0.00,,---,0.00,VWS V14.01,2013-06-01 12:20:00,
2013-06-01 08:26:00,73.2,66.7,29.99,SE,125,0.0,0.0,80,0.00,,---,0.00,VWS V14.01,2013-06-01 12:26:00,
2013-06-01 08:31:00,73.7,66.8,29.99,WSW,240,0.0,0.0,79,0.00,,---,0.00,VWS V14.01,2013-06-01 12:31:00,
2013-06-01 08:36:00,74.4,66.0,29.99,WSW,254,3.0,3.0,75,0.00,,---,0.00,VWS V14.01,2013-06-01 12:36:00,
2013-06-01 08:41:00,74.9,66.1,29.99,WSW,254,0.0,0.0,74,0.00,,---,0.00,VWS V14.01,2013-06-01 12:41:00,
2013-06-01 08:47:00,75.4,66.5,29.99,WSW,254,0.0,0.0,74,0.00,,---,0.00,VWS V14.01,2013-06-01 12:47:00,
2013-06-01 08:53:00,75.8,66.9,29.99,WSW,254,0.0,0.0,74,0.00,,---,0.00,VWS V14.01,2013-06-01 12:53:00,
2013-06-01 08:58:00,76.3,67.4,29.99,WSW,254,0.0,0.0,74,0.00,,---,0.00,VWS V14.01,2013-06-01 12:58:00,
2013-06-01 09:03:00,76.7,67.4,29.99,WSW,254,0.0,0.0,73,0.00,,---,0.00,VWS V14.01,2013-06-01 13:03:00,
2013-06-01 09:08:00,76.8,67.5,29.99,WSW,254,0.0,0.0,73,0.00,,---,0.00,VWS V14.01,2013-06-01 13:08:00,
2013-06-01 09:13:00,77.2,67.1,29.99,WSW,254,0.0,0.0,71,0.00,,---,0.00,VWS V14.01,2013-06-01 13:13:00,
2013-06-01 09:19:00,77.7,67.1,29.99,SSW,210,0.0,0.0,70,0.00,,---,0.00,VWS V14.01,2013-06-01 13:19:00,
2013-06-01 09:24:00,77.9,67.3,29.99,SSW,194,0.0,2.0,70,0.00,,---,0.00,VWS V14.01,2013-06-01 13:24:00,
2013-06-01 09:29:00,78.3,67.3,29.98,SSW,194,0.0,1.0,69,0.00,,---,0.00,VWS V14.01,2013-06-01 13:29:00,
2013-06-01 09:34:00,78.6,66.7,29.98,SSW,213,0.0,0.0,67,0.00,,---,0.00,VWS V14.01,2013-06-01 13:34:00,
2013-06-01 09:39:00,79.0,67.6,29.98,SSW,213,0.0,0.0,68,0.00,,---,0.00,VWS V14.01,2013-06-01 13:39:00,
2013-06-01 09:44:00,79.4,67.9,29.97,SSW,213,0.0,0.0,68,0.00,,---,0.00,VWS V14.01,2013-06-01 13:44:00,
2013-06-01 09:49:00,79.8,67.4,29.97,SSW,213,0.0,0.0,66,0.00,,---,0.00,VWS V14.01,2013-06-01 13:49:00,
2013-06-01 09:55:00,80.3,68.3,29.97,SSW,213,1.0,1.0,67,0.00,,---,0.00,VWS V14.01,2013-06-01 13:55:00,
2013-06-01 10:00:00,80.5,67.2,29.98,South,177,0.0,0.0,64,0.00,,---,0.00,VWS V14.01,2013-06-01 14:00:00,
2013-06-01 10:05:00,80.9,68.9,29.97,South,177,0.0,0.0,67,0.00,,---,0.00,VWS V14.01,2013-06-01 14:05:00,
2013-06-01 10:10:00,81.2,67.4,29.97,South,186,0.0,0.0,63,0.00,,---,0.00,VWS V14.01,2013-06-01 14:10:00,
2013-06-01 10:15:00,81.4,66.7,29.97,SW,225,0.0,1.0,61,0.00,,---,0.00,VWS V14.01,2013-06-01 14:15:00,
2013-06-01 10:21:00,81.8,67.1,29.97,SW,225,0.0,1.0,61,0.00,,---,0.00,VWS V14.01,2013-06-01 14:21:00,
2013-06-01 10:26:00,82.2,66.9,29.97,WSW,245,0.0,0.0,60,0.00,,---,0.00,VWS V14.01,2013-06-01 14:26:00,
2013-06-01 10:31:00,82.4,66.7,29.97,WSW,258,0.0,1.0,59,0.00,,---,0.00,VWS V14.01,2013-06-01 14:31:00,
2013-06-01 10:36:00,82.6,66.8,29.97,WSW,252,0.0,0.0,59,0.00,,---,0.00,VWS V14.01,2013-06-01 14:36:00,
2013-06-01 10:41:00,83.0,67.2,29.97,West,275,0.0,2.0,59,0.00,,---,0.00,VWS V14.01,2013-06-01 14:41:00,
2013-06-01 10:46:00,83.2,66.4,29.97,West,270,1.0,1.0,57,0.00,,---,0.00,VWS V14.01,2013-06-01 14:46:00,
2013-06-01 10:51:00,83.4,67.1,29.97,West,269,1.0,3.0,58,0.00,,---,0.00,VWS V14.01,2013-06-01 14:51:00,
2013-06-01 10:56:00,83.4,66.1,29.97,West,265,0.0,0.0,56,0.00,,---,0.00,VWS V14.01,2013-06-01 14:56:00,
2013-06-01 11:01:00,83.6,67.3,29.97,WNW,292,0.0,2.0,58,0.00,,---,0.00,VWS V14.01,2013-06-01 15:01:00,
2013-06-01 11:06:00,84.1,67.2,29.97,WNW,300,0.0,1.0,57,0.00,,---,0.00,VWS V14.01,2013-06-01 15:06:00,
2013-06-01 11:11:00,84.3,66.9,29.96,WSW,244,3.0,3.0,56,0.00,,---,0.00,VWS V14.01,2013-06-01 15:11:00,
2013-06-01 11:16:00,84.0,65.6,29.96,SW,233,2.0,4.0,54,0.00,,---,0.00,VWS V14.01,2013-06-01 15:16:00,
2013-06-01 11:21:00,84.1,66.7,29.96,WSW,251,2.0,6.0,56,0.00,,---,0.00,VWS V14.01,2013-06-01 15:21:00,
2013-06-01 11:26:00,84.5,65.5,29.96,West,279,1.0,4.0,53,0.00,,---,0.00,VWS V14.01,2013-06-01 15:26:00,
2013-06-01 11:32:00,84.7,67.3,29.95,WSW,249,0.0,0.0,56,0.00,,---,0.00,VWS V14.01,2013-06-01 15:32:00,
2013-06-01 11:37:00,85.1,65.5,29.95,West,267,4.0,4.0,52,0.00,,---,0.00,VWS V14.01,2013-06-01 15:37:00,
2013-06-01 11:42:00,85.1,65.0,29.95,WSW,254,0.0,2.0,51,0.00,,---,0.00,VWS V14.01,2013-06-01 15:42:00,
2013-06-01 11:47:00,85.7,67.2,29.95,WSW,247,0.0,2.0,54,0.00,,---,0.00,VWS V14.01,2013-06-01 15:47:00,
2013-06-01 11:53:00,86.1,65.3,29.95,WSW,238,0.0,3.0,50,0.00,,---,0.00,VWS V14.01,2013-06-01 15:53:00,
2013-06-01 11:58:00,86.1,64.7,29.95,WSW,238,3.0,5.0,49,0.00,,---,0.00,VWS V14.01,2013-06-01 15:58:00,
2013-06-01 12:04:00,85.9,65.1,29.95,West,262,1.0,4.0,50,0.00,,---,0.00,VWS V14.01,2013-06-01 16:04:00,
2013-06-01 12:09:00,85.9,65.1,29.95,West,271,0.0,1.0,50,0.00,,---,0.00,VWS V14.01,2013-06-01 16:09:00,
2013-06-01 12:15:00,86.1,65.3,29.95,SW,223,1.0,4.0,50,0.00,,---,0.00,VWS V14.01,2013-06-01 16:15:00,
2013-06-01 12:20:00,86.3,65.5,29.95,SW,223,1.0,2.0,50,0.00,,---,0.00,VWS V14.01,2013-06-01 16:20:00,
2013-06-01 12:25:00,86.3,64.9,29.95,WSW,244,0.0,2.0,49,0.00,,---,0.00,VWS V14.01,2013-06-01 16:25:00,
2013-06-01 12:30:00,86.5,64.5,29.95,WSW,253,1.0,3.0,48,0.00,,---,0.00,VWS V14.01,2013-06-01 16:30:00,
2013-06-01 12:35:00,86.7,65.9,29.94,NW,311,0.0,1.0,50,0.00,,---,0.00,VWS V14.01,2013-06-01 16:35:00,
2013-06-01 12:40:00,87.2,65.7,29.94,West,261,0.0,4.0,49,0.00,,---,0.00,VWS V14.01,2013-06-01 16:40:00,
2013-06-01 12:45:00,87.8,64.5,29.94,ESE,106,0.0,1.0,46,0.00,,---,0.00,VWS V14.01,2013-06-01 16:45:00,
2013-06-01 12:50:00,87.8,64.5,29.94,WSW,240,0.0,2.0,46,0.00,,---,0.00,VWS V14.01,2013-06-01 16:50:00,
2013-06-01 12:55:00,87.8,66.9,29.94,SSE,147,2.0,2.0,50,0.00,,---,0.00,VWS V14.01,2013-06-01 16:55:00,
2013-06-01 13:00:00,88.0,67.6,29.94,SSE,154,0.0,1.0,51,0.00,,---,0.00,VWS V14.01,2013-06-01 17:00:00,
2013-06-01 13:06:00,88.2,68.4,29.94,SSE,149,0.0,0.0,52,0.00,,---,0.00,VWS V14.01,2013-06-01 17:06:00,
2013-06-01 13:11:00,88.2,68.9,29.94,ENE,58,0.0,0.0,53,0.00,,---,0.00,VWS V14.01,2013-06-01 17:11:00,
2013-06-01 13:16:00,88.2,68.9,29.94,SSE,159,0.0,2.0,53,0.00,,---,0.00,VWS V14.01,2013-06-01 17:16:00,
2013-06-01 13:21:00,88.0,68.2,29.93,South,175,0.0,1.0,52,0.00,,---,0.00,VWS V14.01,2013-06-01 17:21:00,
2013-06-01 13:27:00,87.6,68.4,29.93,SSW,200,1.0,2.0,53,0.00,,---,0.00,VWS V14.01,2013-06-01 17:27:00,
2013-06-01 13:32:00,87.4,68.2,29.93,SW,219,0.0,2.0,53,0.00,,---,0.00,VWS V14.01,2013-06-01 17:32:00,
2013-06-01 13:38:00,87.8,68.0,29.93,SSW,207,0.0,1.0,52,0.00,,---,0.00,VWS V14.01,2013-06-01 17:38:00,
2013-06-01 13:43:00,88.2,69.5,29.93,WNW,284,1.0,2.0,54,0.00,,---,0.00,VWS V14.01,2013-06-01 17:43:00,
2013-06-01 13:48:00,88.4,68.6,29.92,South,171,0.0,0.0,52,0.00,,---,0.00,VWS V14.01,2013-06-01 17:48:00,
2013-06-01 13:54:00,88.6,67.0,29.92,SSW,200,2.0,6.0,49,0.00,,---,0.00,VWS V14.01,2013-06-01 17:54:00,
2013-06-01 13:59:00,88.4,67.4,29.92,SSE,164,1.0,1.0,50,0.00,,---,0.00,VWS V14.01,2013-06-01 17:59:00,
2013-06-01 14:04:00,88.4,68.6,29.92,SW,229,0.0,3.0,52,0.00,,---,0.00,VWS V14.01,2013-06-01 18:04:00,
2013-06-01 14:09:00,88.4,67.4,29.93,WSW,247,1.0,1.0,50,0.00,,---,0.00,VWS V14.01,2013-06-01 18:09:00,
2013-06-01 14:14:00,88.6,66.4,29.92,SSE,157,0.0,3.0,48,0.00,,---,0.00,VWS V14.01,2013-06-01 18:14:00,
2013-06-01 14:20:00,88.8,67.2,29.92,South,179,0.0,1.0,49,0.00,,---,0.00,VWS V14.01,2013-06-01 18:20:00,
2013-06-01 14:25:00,88.6,67.6,29.92,WSW,252,0.0,3.0,50,0.00,,---,0.00,VWS V14.01,2013-06-01 18:25:00,
2013-06-01 14:30:00,88.4,66.8,29.92,WSW,248,1.0,4.0,49,0.00,,---,0.00,VWS V14.01,2013-06-01 18:30:00,
2013-06-01 14:35:00,88.2,67.8,29.92,South,172,0.0,1.0,51,0.00,,---,0.00,VWS V14.01,2013-06-01 18:35:00,
2013-06-01 14:40:00,88.2,67.8,29.92,SW,236,0.0,3.0,51,0.00,,---,0.00,VWS V14.01,2013-06-01 18:40:00,
2013-06-01 14:45:00,88.2,67.2,29.92,SSW,196,2.0,2.0,50,0.00,,---,0.00,VWS V14.01,2013-06-01 18:45:00,
2013-06-01 14:50:00,87.8,68.6,29.91,South,172,2.0,2.0,53,0.00,,---,0.00,VWS V14.01,2013-06-01 18:50:00,
2013-06-01 14:55:00,87.8,68.0,29.92,SSW,201,0.0,1.0,52,0.00,,---,0.00,VWS V14.01,2013-06-01 18:55:00,
2013-06-01 15:01:00,87.6,67.8,29.91,WNW,291,0.0,1.0,52,0.00,,---,0.00,VWS V14.01,2013-06-01 19:01:00,
2013-06-01 15:06:00,87.8,68.0,29.91,WNW,298,1.0,1.0,52,0.00,,---,0.00,VWS V14.01,2013-06-01 19:06:00,
2013-06-01 15:11:00,87.6,67.8,29.91,NNE,13,0.0,2.0,52,0.00,,---,0.00,VWS V14.01,2013-06-01 19:11:00,
2013-06-01 15:16:00,87.8,68.0,29.91,SSW,202,1.0,2.0,52,0.00,,---,0.00,VWS V14.01,2013-06-01 19:16:00,
2013-06-01 15:22:00,88.0,68.7,29.91,South,175,0.0,1.0,53,0.00,,---,0.00,VWS V14.01,2013-06-01 19:22:00,
2013-06-01 15:27:00,88.2,67.2,29.91,East,97,0.0,0.0,50,0.00,,---,0.00,VWS V14.01,2013-06-01 19:27:00,
2013-06-01 15:32:00,88.4,67.4,29.91,South,188,2.0,2.0,50,0.00,,---,0.00,VWS V14.01,2013-06-01 19:32:00,
2013-06-01 15:38:00,88.2,66.7,29.91,SW,224,0.0,2.0,49,0.00,,---,0.00,VWS V14.01,2013-06-01 19:38:00,
2013-06-01 15:43:00,88.0,67.1,29.91,ENE,58,0.0,3.0,50,0.00,,---,0.00,VWS V14.01,2013-06-01 19:43:00,
2013-06-01 15:49:00,88.0,68.2,29.91,North,355,0.0,4.0,52,0.00,,---,0.00,VWS V14.01,2013-06-01 19:49:00,
2013-06-01 15:54:00,88.0,68.2,29.91,SSE,166,1.0,5.0,52,0.00,,---,0.00,VWS V14.01,2013-06-01 19:54:00,
2013-06-01 15:59:00,88.2,68.4,29.91,West,270,0.0,1.0,52,0.00,,---,0.00,VWS V14.01,2013-06-01 19:59:00,
2013-06-01 16:05:00,88.0,67.1,29.91,SSE,161,1.0,2.0,50,0.00,,---,0.00,VWS V14.01,2013-06-01 20:05:00,
2013-06-01 16:10:00,88.2,67.8,29.91,SSW,203,0.0,0.0,51,0.00,,---,0.00,VWS V14.01,2013-06-01 20:10:00,
2013-06-01 16:15:00,88.2,68.4,29.91,SW,222,0.0,1.0,52,0.00,,---,0.00,VWS V14.01,2013-06-01 20:15:00,
2013-06-01 16:20:00,88.0,67.1,29.91,West,268,0.0,3.0,50,0.00,,---,0.00,VWS V14.01,2013-06-01 20:20:00,
2013-06-01 16:25:00,87.6,67.8,29.91,SSE,167,0.0,0.0,52,0.00,,---,0.00,VWS V14.01,2013-06-01 20:25:00,
2013-06-01 16:30:00,87.2,68.0,29.91,WSW,239,1.0,2.0,53,0.00,,---,0.00,VWS V14.01,2013-06-01 20:30:00,
2013-06-01 16:35:00,86.7,66.4,29.91,South,184,1.0,2.0,51,0.00,,---,0.00,VWS V14.01,2013-06-01 20:35:00,
2013-06-01 16:41:00,87.0,66.7,29.91,SE,144,2.0,2.0,51,0.00,,---,0.00,VWS V14.01,2013-06-01 20:41:00,
2013-06-01 16:46:00,87.0,67.8,29.91,SW,219,1.0,1.0,53,0.00,,---,0.00,VWS V14.01,2013-06-01 20:46:00,
2013-06-01 16:51:00,87.0,68.4,29.91,SSE,166,2.0,3.0,54,0.00,,---,0.00,VWS V14.01,2013-06-01 20:51:00,
2013-06-01 16:56:00,86.7,67.0,29.90,SSE,164,0.0,2.0,52,0.00,,---,0.00,VWS V14.01,2013-06-01 20:56:00,
2013-06-01 17:01:00,86.7,67.0,29.90,SW,218,0.0,1.0,52,0.00,,---,0.00,VWS V14.01,2013-06-01 21:01:00,
2013-06-01 17:06:00,86.5,66.8,29.91,SSE,161,1.0,3.0,52,0.00,,---,0.00,VWS V14.01,2013-06-01 21:06:00,
2013-06-01 17:11:00,86.3,67.2,29.90,SW,222,1.0,1.0,53,0.00,,---,0.00,VWS V14.01,2013-06-01 21:11:00,
2013-06-01 17:16:00,85.9,66.8,29.90,West,279,1.0,2.0,53,0.00,,---,0.00,VWS V14.01,2013-06-01 21:16:00,
2013-06-01 17:21:00,85.5,66.4,29.90,SE,141,0.0,4.0,53,0.00,,---,0.00,VWS V14.01,2013-06-01 21:21:00,
2013-06-01 17:26:00,85.1,66.6,29.90,SSW,207,1.0,2.0,54,0.00,,---,0.00,VWS V14.01,2013-06-01 21:26:00,
2013-06-01 17:31:00,84.9,66.4,29.90,SE,139,0.0,3.0,54,0.00,,---,0.00,VWS V14.01,2013-06-01 21:31:00,
2013-06-01 17:37:00,84.7,66.8,29.90,SSW,198,0.0,1.0,55,0.00,,---,0.00,VWS V14.01,2013-06-01 21:37:00,
2013-06-01 17:42:00,84.5,66.1,29.89,South,174,0.0,0.0,54,0.00,,---,0.00,VWS V14.01,2013-06-01 21:42:00,
2013-06-01 17:47:00,84.3,65.9,29.90,West,263,0.0,9.0,54,0.00,,---,0.00,VWS V14.01,2013-06-01 21:47:00,
2013-06-01 17:52:00,84.0,65.6,29.89,SSW,209,0.0,0.0,54,0.00,,---,0.00,VWS V14.01,2013-06-01 21:52:00,
2013-06-01 17:58:00,83.8,66.4,29.90,South,183,2.0,3.0,56,0.00,,---,0.00,VWS V14.01,2013-06-01 21:58:00,
2013-06-01 18:03:00,83.6,66.3,29.90,SW,233,0.0,2.0,56,0.00,,---,0.00,VWS V14.01,2013-06-01 22:03:00,
2013-06-01 18:08:00,83.4,66.6,29.89,SSE,162,3.0,3.0,57,0.00,,---,0.00,VWS V14.01,2013-06-01 22:08:00,
2013-06-01 18:13:00,83.2,66.9,29.89,South,182,0.0,0.0,58,0.00,,---,0.00,VWS V14.01,2013-06-01 22:13:00,
2013-06-01 18:18:00,83.2,66.9,29.89,South,182,0.0,2.0,58,0.00,,---,0.00,VWS V14.01,2013-06-01 22:18:00,
2013-06-01 18:25:00,82.8,67.0,29.89,SSE,159,0.0,0.0,59,0.00,,---,0.00,VWS V14.01,2013-06-01 22:25:00,
2013-06-01 18:30:00,82.6,66.8,29.88,SSE,163,0.0,1.0,59,0.00,,---,0.00,VWS V14.01,2013-06-01 22:30:00,
2013-06-01 18:36:00,82.2,66.9,29.89,North,5,0.0,0.0,60,0.00,,---,0.00,VWS V14.01,2013-06-01 22:36:00,
2013-06-01 18:41:00,82.0,66.8,29.89,SSE,155,0.0,3.0,60,0.00,,---,0.00,VWS V14.01,2013-06-01 22:41:00,
2013-06-01 18:47:00,81.8,66.6,29.89,SSE,155,0.0,0.0,60,0.00,,---,0.00,VWS V14.01,2013-06-01 22:47:00,
2013-06-01 18:53:00,81.6,66.9,29.89,ESE,122,2.0,2.0,61,0.00,,---,0.00,VWS V14.01,2013-06-01 22:53:00,
2013-06-01 18:58:00,81.4,66.7,29.89,SE,134,0.0,0.0,61,0.00,,---,0.00,VWS V14.01,2013-06-01 22:58:00,
2013-06-01 19:04:00,81.2,66.5,29.89,SE,146,0.0,0.0,61,0.00,,---,0.00,VWS V14.01,2013-06-01 23:04:00,
2013-06-01 19:09:00,81.1,66.9,29.89,SE,146,0.0,1.0,62,0.00,,---,0.00,VWS V14.01,2013-06-01 23:09:00,
2013-06-01 19:14:00,80.7,66.5,29.89,SSE,152,0.0,0.0,62,0.00,,---,0.00,VWS V14.01,2013-06-01 23:14:00,
2013-06-01 19:19:00,80.5,66.8,29.90,NNW,348,0.0,0.0,63,0.00,,---,0.00,VWS V14.01,2013-06-01 23:19:00,
2013-06-01 19:24:00,80.1,66.4,29.89,SSE,152,0.0,0.0,63,0.00,,---,0.00,VWS V14.01,2013-06-01 23:24:00,
2013-06-01 19:29:00,79.8,66.6,29.89,SSE,153,0.0,0.0,64,0.00,,---,0.00,VWS V14.01,2013-06-01 23:29:00,
2013-06-01 19:34:00,79.6,66.4,29.89,SSE,153,0.0,0.0,64,0.00,,---,0.00,VWS V14.01,2013-06-01 23:34:00,
2013-06-01 19:39:00,79.4,66.2,29.89,SSE,153,0.0,1.0,64,0.00,,---,0.00,VWS V14.01,2013-06-01 23:39:00,
2013-06-01 19:44:00,79.0,66.2,29.89,NNW,345,0.0,1.0,65,0.00,,---,0.00,VWS V14.01,2013-06-01 23:44:00,
2013-06-01 19:49:00,78.6,65.9,29.89,SSE,147,0.0,0.0,65,0.00,,---,0.00,VWS V14.01,2013-06-01 23:49:00,
2013-06-01 19:55:00,78.3,66.0,29.89,SSE,155,0.0,0.0,66,0.00,,---,0.00,VWS V14.01,2013-06-01 23:55:00,
2013-06-01 20:00:00,77.9,65.6,29.89,SSE,157,1.0,2.0,66,0.00,,---,0.00,VWS V14.01,2013-06-02 00:00:00,
2013-06-01 20:06:00,77.6,65.8,29.89,SSE,159,0.0,0.0,67,0.00,,---,0.00,VWS V14.01,2013-06-02 00:06:00,
2013-06-01 20:11:00,77.4,66.0,29.89,SSE,161,0.0,0.0,68,0.00,,---,0.00,VWS V14.01,2013-06-02 00:11:00,
2013-06-01 20:16:00,77.0,65.6,29.89,SSE,155,1.0,1.0,68,0.00,,---,0.00,VWS V14.01,2013-06-02 00:16:00,
2013-06-01 20:21:00,76.7,65.3,29.90,SSE,153,0.0,0.0,68,0.00,,---,0.00,VWS V14.01,2013-06-02 00:21:00,
2013-06-01 20:26:00,76.5,65.6,29.90,SE,128,0.0,2.0,69,0.00,,---,0.00,VWS V14.01,2013-06-02 00:26:00,
2013-06-01 20:31:00,76.3,65.8,29.90,NE,55,0.0,0.0,70,0.00,,---,0.00,VWS V14.01,2013-06-02 00:31:00,
2013-06-01 20:36:00,76.0,65.5,29.90,ESE,104,0.0,0.0,70,0.00,,---,0.00,VWS V14.01,2013-06-02 00:36:00,
2013-06-01 20:41:00,75.8,65.3,29.90,SE,140,0.0,0.0,70,0.00,,---,0.00,VWS V14.01,2013-06-02 00:41:00,
2013-06-01 20:46:00,75.6,65.5,29.90,SE,140,0.0,0.0,71,0.00,,---,0.00,VWS V14.01,2013-06-02 00:46:00,
2013-06-01 20:51:00,75.4,65.3,29.90,SE,141,0.0,0.0,71,0.00,,---,0.00,VWS V14.01,2013-06-02 00:51:00,
2013-06-01 20:56:00,75.3,65.3,29.90,SE,146,0.0,0.0,71,0.00,,---,0.00,VWS V14.01,2013-06-02 00:56:00,
2013-06-01 21:01:00,75.1,65.1,29.90,SE,146,0.0,1.0,71,0.00,,---,0.00,VWS V14.01,2013-06-02 01:01:00,
2013-06-01 21:06:00,74.9,65.3,29.90,SE,146,0.0,0.0,72,0.00,,---,0.00,VWS V14.01,2013-06-02 01:06:00,
2013-06-01 21:11:00,74.7,65.1,29.90,SE,146,0.0,1.0,72,0.00,,---,0.00,VWS V14.01,2013-06-02 01:11:00,
2013-06-01 21:16:00,74.6,65.4,29.90,SE,146,0.0,0.0,73,0.00,,---,0.00,VWS V14.01,2013-06-02 01:16:00,
2013-06-01 21:21:00,74.4,65.2,29.90,SE,146,0.0,0.0,73,0.00,,---,0.00,VWS V14.01,2013-06-02 01:21:00,
2013-06-01 21:27:00,74.2,65.0,29.91,SE,146,0.0,0.0,73,0.00,,---,0.00,VWS V14.01,2013-06-02 01:27:00,
2013-06-01 21:32:00,74.0,65.2,29.91,SE,146,0.0,0.0,74,0.00,,---,0.00,VWS V14.01,2013-06-02 01:32:00,
2013-06-01 21:38:00,73.9,65.1,29.90,SE,146,0.0,0.0,74,0.00,,---,0.00,VWS V14.01,2013-06-02 01:38:00,
2013-06-01 21:43:00,73.7,64.9,29.91,SSE,156,1.0,1.0,74,0.00,,---,0.00,VWS V14.01,2013-06-02 01:43:00,
2013-06-01 21:48:00,73.5,64.7,29.90,SSE,155,0.0,0.0,74,0.00,,---,0.00,VWS V14.01,2013-06-02 01:48:00,
2013-06-01 21:53:00,73.5,64.7,29.90,SSE,155,0.0,0.0,74,0.00,,---,0.00,VWS V14.01,2013-06-02 01:53:00,
2013-06-01 21:58:00,73.3,64.9,29.90,SSE,155,0.0,0.0,75,0.00,,---,0.00,VWS V14.01,2013-06-02 01:58:00,
2013-06-01 22:03:00,73.2,64.8,29.90,SSE,155,0.0,0.0,75,0.00,,---,0.00,VWS V14.01,2013-06-02 02:03:00,
2013-06-01 22:09:00,73.0,64.6,29.90,SSE,155,0.0,0.0,75,0.00,,---,0.00,VWS V14.01,2013-06-02 02:09:00,
2013-06-01 22:14:00,72.8,64.8,29.90,SSE,155,0.0,0.0,76,0.00,,---,0.00,VWS V14.01,2013-06-02 02:14:00,
2013-06-01 22:19:00,72.7,64.7,29.90,SSE,155,0.0,0.0,76,0.00,,---,0.00,VWS V14.01,2013-06-02 02:19:00,
2013-06-01 22:24:00,72.7,64.7,29.90,SSE,155,0.0,0.0,76,0.00,,---,0.00,VWS V14.01,2013-06-02 02:24:00,
2013-06-01 22:29:00,72.5,64.5,29.90,SSE,155,0.0,0.0,76,0.00,,---,0.00,VWS V14.01,2013-06-02 02:29:00,
2013-06-01 22:34:00,72.3,64.7,29.90,NNE,22,0.0,0.0,77,0.00,,---,0.00,VWS V14.01,2013-06-02 02:34:00,
2013-06-01 22:39:00,72.1,64.5,29.90,SSE,153,0.0,1.0,77,0.00,,---,0.00,VWS V14.01,2013-06-02 02:39:00,
2013-06-01 22:44:00,72.1,64.5,29.90,SSE,153,0.0,0.0,77,0.00,,---,0.00,VWS V14.01,2013-06-02 02:44:00,
2013-06-01 22:49:00,72.0,64.4,29.90,ESE,119,0.0,0.0,77,0.00,,---,0.00,VWS V14.01,2013-06-02 02:49:00,
2013-06-01 22:54:00,71.8,64.6,29.90,ESE,119,0.0,0.0,78,0.00,,---,0.00,VWS V14.01,2013-06-02 02:54:00,
2013-06-01 22:59:00,71.6,64.4,29.90,ESE,119,0.0,0.0,78,0.00,,---,0.00,VWS V14.01,2013-06-02 02:59:00,
2013-06-01 23:04:00,71.6,64.4,29.90,ESE,119,0.0,0.0,78,0.00,,---,0.00,VWS V14.01,2013-06-02 03:04:00,
2013-06-01 23:09:00,71.5,64.3,29.90,ESE,119,0.0,0.0,78,0.00,,---,0.00,VWS V14.01,2013-06-02 03:09:00,
2013-06-01 23:14:00,71.5,64.7,29.90,ESE,119,0.0,0.0,79,0.00,,---,0.00,VWS V14.01,2013-06-02 03:14:00,
2013-06-01 23:20:00,71.5,64.7,29.90,ESE,119,0.0,0.0,79,0.00,,---,0.00,VWS V14.01,2013-06-02 03:20:00,
2013-06-01 23:25:00,71.3,64.5,29.90,ESE,119,0.0,0.0,79,0.00,,---,0.00,VWS V14.01,2013-06-02 03:25:00,
2013-06-01 23:30:00,71.3,64.5,29.90,ESE,119,0.0,0.0,79,0.00,,---,0.00,VWS V14.01,2013-06-02 03:30:00,
2013-06-01 23:35:00,71.3,64.5,29.90,ESE,119,0.0,0.0,79,0.00,,---,0.00,VWS V14.01,2013-06-02 03:35:00,
2013-06-01 23:41:00,71.1,64.6,29.90,ESE,119,0.0,0.0,80,0.00,,---,0.00,VWS V14.01,2013-06-02 03:41:00,
2013-06-01 23:46:00,71.1,64.6,29.90,ESE,119,0.0,0.0,80,0.00,,---,0.00,VWS V14.01,2013-06-02 03:46:00,
2013-06-01 23:52:00,70.9,64.4,29.90,ESE,119,0.0,0.0,80,0.00,,---,0.00,VWS V14.01,2013-06-02 03:52:00,
2013-06-01 23:58:00,70.9,64.4,29.90,SSE,157,0.0,2.0,80,0.00,,---,0.00,VWS V14.01,2013-06-02 03:58:00,